sensor_id;sensor_type;location;lat;lon;timestamp;P1;durP1;ratioP1;P2;durP2;ratioP2
15383;SDS011;7790;53.022;12.968;2023-01-19T00:02:25;2.23;;;1.90;;
15383;SDS011;7790;53.022;12.968;2023-01-19T00:06:27;2.20;;;2.00;;
15383;SDS011;7790;53.022;12.968;2023-01-19T00:10:28;3.37;;;1.90;;
15383;SDS011;7790;53.022;12.968;2023-01-19T00:14:29;2.10;;;1.90;;
15383;SDS011;7790;53.022;12.968;2023-01-19T00:18:30;2.60;;;2.00;;
15383;SDS011;7790;53.022;12.968;2023-01-19T00:22:32;2.10;;;1.90;;
15383;SDS011;7790;53.022;12.968;2023-01-19T00:26:33;2.60;;;2.10;;
15383;SDS011;7790;53.022;12.968;2023-01-19T00:30:35;2.03;;;1.83;;
15383;SDS011;7790;53.022;12.968;2023-01-19T00:34:36;2.20;;;2.00;;
15383;SDS011;7790;53.022;12.968;2023-01-19T00:38:38;2.30;;;2.07;;
15383;SDS011;7790;53.022;12.968;2023-01-19T00:42:39;2.20;;;2.00;;
15383;SDS011;7790;53.022;12.968;2023-01-19T00:46:43;2.20;;;1.90;;
15383;SDS011;7790;53.022;12.968;2023-01-19T00:50:44;2.20;;;2.00;;
15383;SDS011;7790;53.022;12.968;2023-01-19T00:54:45;2.10;;;1.90;;
15383;SDS011;7790;53.022;12.968;2023-01-19T00:58:47;1.80;;;1.70;;
15383;SDS011;7790;53.022;12.968;2023-01-19T01:02:49;2.13;;;2.00;;
15383;SDS011;7790;53.022;12.968;2023-01-19T01:06:50;2.37;;;1.97;;
15383;SDS011;7790;53.022;12.968;2023-01-19T01:10:52;2.23;;;1.80;;
15383;SDS011;7790;53.022;12.968;2023-01-19T01:14:54;1.70;;;1.60;;
15383;SDS011;7790;53.022;12.968;2023-01-19T01:18:55;2.23;;;1.70;;
15383;SDS011;7790;53.022;12.968;2023-01-19T01:22:57;2.13;;;2.00;;
15383;SDS011;7790;53.022;12.968;2023-01-19T01:26:59;2.10;;;1.90;;
15383;SDS011;7790;53.022;12.968;2023-01-19T01:31:00;2.47;;;1.80;;
15383;SDS011;7790;53.022;12.968;2023-01-19T01:35:01;2.53;;;1.70;;
15383;SDS011;7790;53.022;12.968;2023-01-19T01:39:03;1.90;;;1.80;;
15383;SDS011;7790;53.022;12.968;2023-01-19T01:43:08;1.97;;;1.77;;
15383;SDS011;7790;53.022;12.968;2023-01-19T01:47:10;1.90;;;1.80;;
15383;SDS011;7790;53.022;12.968;2023-01-19T01:51:14;2.00;;;1.90;;
15383;SDS011;7790;53.022;12.968;2023-01-19T01:55:24;1.80;;;1.70;;
15383;SDS011;7790;53.022;12.968;2023-01-19T02:03:33;1.80;;;1.70;;
15383;SDS011;7790;53.022;12.968;2023-01-19T02:12:27;1.60;;;1.50;;
15383;SDS011;7790;53.022;12.968;2023-01-19T02:16:47;1.87;;;1.50;;
15383;SDS011;7790;53.022;12.968;2023-01-19T02:21:00;1.70;;;1.60;;
15383;SDS011;7790;53.022;12.968;2023-01-19T02:25:03;1.90;;;1.80;;
15383;SDS011;7790;53.022;12.968;2023-01-19T02:29:23;1.73;;;1.63;;
15383;SDS011;7790;53.022;12.968;2023-01-19T02:33:25;1.47;;;1.37;;
15383;SDS011;7790;53.022;12.968;2023-01-19T02:37:27;1.50;;;1.40;;
15383;SDS011;7790;53.022;12.968;2023-01-19T02:41:31;1.90;;;1.70;;
15383;SDS011;7790;53.022;12.968;2023-01-19T02:45:34;1.63;;;1.43;;
15383;SDS011;7790;53.022;12.968;2023-01-19T02:49:36;1.90;;;1.67;;
15383;SDS011;7790;53.022;12.968;2023-01-19T02:53:48;1.97;;;1.80;;
15383;SDS011;7790;53.022;12.968;2023-01-19T03:06:04;1.70;;;1.60;;
15383;SDS011;7790;53.022;12.968;2023-01-19T03:14:24;1.53;;;1.43;;
15383;SDS011;7790;53.022;12.968;2023-01-19T03:18:29;1.90;;;1.80;;
15383;SDS011;7790;53.022;12.968;2023-01-19T03:22:32;1.70;;;1.60;;
15383;SDS011;7790;53.022;12.968;2023-01-19T03:26:53;1.90;;;1.80;;
15383;SDS011;7790;53.022;12.968;2023-01-19T03:30:59;1.57;;;1.47;;
15383;SDS011;7790;53.022;12.968;2023-01-19T03:35:02;1.67;;;1.57;;
15383;SDS011;7790;53.022;12.968;2023-01-19T03:39:05;2.63;;;1.63;;
15383;SDS011;7790;53.022;12.968;2023-01-19T03:43:07;1.70;;;1.60;;
15383;SDS011;7790;53.022;12.968;2023-01-19T03:47:09;1.47;;;1.37;;
15383;SDS011;7790;53.022;12.968;2023-01-19T03:51:11;1.70;;;1.60;;
15383;SDS011;7790;53.022;12.968;2023-01-19T03:55:13;1.70;;;1.60;;
15383;SDS011;7790;53.022;12.968;2023-01-19T03:59:14;1.80;;;1.70;;
15383;SDS011;7790;53.022;12.968;2023-01-19T04:03:17;1.30;;;1.20;;
15383;SDS011;7790;53.022;12.968;2023-01-19T04:07:19;1.50;;;1.40;;
15383;SDS011;7790;53.022;12.968;2023-01-19T04:11:21;1.40;;;1.30;;
15383;SDS011;7790;53.022;12.968;2023-01-19T04:15:22;1.50;;;1.40;;
15383;SDS011;7790;53.022;12.968;2023-01-19T04:19:23;1.77;;;1.67;;
15383;SDS011;7790;53.022;12.968;2023-01-19T04:23:25;1.40;;;1.30;;
15383;SDS011;7790;53.022;12.968;2023-01-19T04:27:26;1.50;;;1.40;;
15383;SDS011;7790;53.022;12.968;2023-01-19T04:31:28;1.60;;;1.50;;
15383;SDS011;7790;53.022;12.968;2023-01-19T04:35:30;1.60;;;1.50;;
15383;SDS011;7790;53.022;12.968;2023-01-19T04:39:33;1.80;;;1.50;;
15383;SDS011;7790;53.022;12.968;2023-01-19T04:43:34;1.70;;;1.60;;
15383;SDS011;7790;53.022;12.968;2023-01-19T04:47:36;1.90;;;1.70;;
15383;SDS011;7790;53.022;12.968;2023-01-19T04:51:37;1.50;;;1.40;;
15383;SDS011;7790;53.022;12.968;2023-01-19T04:55:38;1.33;;;1.23;;
15383;SDS011;7790;53.022;12.968;2023-01-19T04:59:39;1.57;;;1.47;;
15383;SDS011;7790;53.022;12.968;2023-01-19T05:03:41;1.53;;;1.43;;
15383;SDS011;7790;53.022;12.968;2023-01-19T05:07:42;1.80;;;1.70;;
15383;SDS011;7790;53.022;12.968;2023-01-19T05:11:43;1.70;;;1.53;;
15383;SDS011;7790;53.022;12.968;2023-01-19T05:15:45;1.67;;;1.57;;
15383;SDS011;7790;53.022;12.968;2023-01-19T05:19:46;1.70;;;1.50;;
15383;SDS011;7790;53.022;12.968;2023-01-19T05:23:48;2.93;;;1.50;;
15383;SDS011;7790;53.022;12.968;2023-01-19T05:27:49;1.60;;;1.50;;
15383;SDS011;7790;53.022;12.968;2023-01-19T05:31:50;2.07;;;1.80;;
15383;SDS011;7790;53.022;12.968;2023-01-19T05:35:52;1.80;;;1.70;;
15383;SDS011;7790;53.022;12.968;2023-01-19T05:39:53;1.67;;;1.57;;
15383;SDS011;7790;53.022;12.968;2023-01-19T05:43:55;1.50;;;1.40;;
15383;SDS011;7790;53.022;12.968;2023-01-19T05:47:56;1.57;;;1.47;;
15383;SDS011;7790;53.022;12.968;2023-01-19T05:51:59;1.60;;;1.50;;
15383;SDS011;7790;53.022;12.968;2023-01-19T05:56:01;1.93;;;1.70;;
15383;SDS011;7790;53.022;12.968;2023-01-19T06:00:03;1.90;;;1.80;;
15383;SDS011;7790;53.022;12.968;2023-01-19T06:04:09;1.70;;;1.43;;
15383;SDS011;7790;53.022;12.968;2023-01-19T06:08:10;2.13;;;1.60;;
15383;SDS011;7790;53.022;12.968;2023-01-19T06:12:11;1.70;;;1.57;;
15383;SDS011;7790;53.022;12.968;2023-01-19T06:16:13;1.97;;;1.47;;
15383;SDS011;7790;53.022;12.968;2023-01-19T06:20:14;1.57;;;1.43;;
15383;SDS011;7790;53.022;12.968;2023-01-19T06:24:16;1.70;;;1.60;;
15383;SDS011;7790;53.022;12.968;2023-01-19T06:28:17;3.13;;;1.60;;
15383;SDS011;7790;53.022;12.968;2023-01-19T06:32:18;2.67;;;1.53;;
15383;SDS011;7790;53.022;12.968;2023-01-19T06:36:20;3.20;;;1.60;;
15383;SDS011;7790;53.022;12.968;2023-01-19T06:40:21;2.27;;;1.63;;
15383;SDS011;7790;53.022;12.968;2023-01-19T06:44:22;3.13;;;1.67;;
15383;SDS011;7790;53.022;12.968;2023-01-19T06:48:25;4.40;;;2.00;;
15383;SDS011;7790;53.022;12.968;2023-01-19T06:52:26;4.53;;;1.97;;
15383;SDS011;7790;53.022;12.968;2023-01-19T06:56:27;1.50;;;1.40;;
15383;SDS011;7790;53.022;12.968;2023-01-19T07:00:29;4.33;;;1.80;;
15383;SDS011;7790;53.022;12.968;2023-01-19T07:04:30;9.17;;;2.23;;
15383;SDS011;7790;53.022;12.968;2023-01-19T07:08:33;6.67;;;1.97;;
15383;SDS011;7790;53.022;12.968;2023-01-19T07:12:35;6.53;;;2.10;;
15383;SDS011;7790;53.022;12.968;2023-01-19T07:16:36;7.67;;;2.17;;
15383;SDS011;7790;53.022;12.968;2023-01-19T07:20:37;4.77;;;2.30;;
15383;SDS011;7790;53.022;12.968;2023-01-19T07:24:39;6.77;;;2.73;;
15383;SDS011;7790;53.022;12.968;2023-01-19T07:28:40;6.37;;;2.63;;
15383;SDS011;7790;53.022;12.968;2023-01-19T07:32:41;5.60;;;2.90;;
15383;SDS011;7790;53.022;12.968;2023-01-19T07:36:43;5.97;;;2.80;;
15383;SDS011;7790;53.022;12.968;2023-01-19T07:40:44;3.30;;;2.57;;
15383;SDS011;7790;53.022;12.968;2023-01-19T07:44:46;5.27;;;3.07;;
15383;SDS011;7790;53.022;12.968;2023-01-19T07:48:47;4.73;;;2.80;;
15383;SDS011;7790;53.022;12.968;2023-01-19T07:52:49;4.57;;;2.63;;
15383;SDS011;7790;53.022;12.968;2023-01-19T07:56:53;3.40;;;2.63;;
15383;SDS011;7790;53.022;12.968;2023-01-19T08:00:54;5.07;;;3.13;;
15383;SDS011;7790;53.022;12.968;2023-01-19T08:04:55;3.93;;;2.87;;
15383;SDS011;7790;53.022;12.968;2023-01-19T08:08:57;3.03;;;2.70;;
15383;SDS011;7790;53.022;12.968;2023-01-19T08:12:58;3.43;;;3.10;;
15383;SDS011;7790;53.022;12.968;2023-01-19T08:17:00;3.83;;;2.63;;
15383;SDS011;7790;53.022;12.968;2023-01-19T08:21:01;4.03;;;3.07;;
15383;SDS011;7790;53.022;12.968;2023-01-19T08:25:02;3.77;;;2.93;;
15383;SDS011;7790;53.022;12.968;2023-01-19T08:29:04;4.43;;;3.00;;
15383;SDS011;7790;53.022;12.968;2023-01-19T08:33:05;2.90;;;2.60;;
15383;SDS011;7790;53.022;12.968;2023-01-19T08:37:07;4.57;;;3.27;;
15383;SDS011;7790;53.022;12.968;2023-01-19T08:41:08;2.93;;;2.73;;
15383;SDS011;7790;53.022;12.968;2023-01-19T08:45:10;3.33;;;2.80;;
15383;SDS011;7790;53.022;12.968;2023-01-19T08:49:11;3.27;;;2.70;;
15383;SDS011;7790;53.022;12.968;2023-01-19T08:53:13;3.60;;;2.90;;
15383;SDS011;7790;53.022;12.968;2023-01-19T08:57:14;3.23;;;2.63;;
15383;SDS011;7790;53.022;12.968;2023-01-19T09:01:15;2.97;;;2.67;;
15383;SDS011;7790;53.022;12.968;2023-01-19T09:05:19;2.70;;;2.50;;
15383;SDS011;7790;53.022;12.968;2023-01-19T09:09:20;3.27;;;2.40;;
15383;SDS011;7790;53.022;12.968;2023-01-19T09:13:21;5.67;;;2.60;;
15383;SDS011;7790;53.022;12.968;2023-01-19T09:17:23;3.13;;;2.70;;
15383;SDS011;7790;53.022;12.968;2023-01-19T09:21:24;6.73;;;2.40;;
15383;SDS011;7790;53.022;12.968;2023-01-19T09:25:26;6.17;;;2.50;;
15383;SDS011;7790;53.022;12.968;2023-01-19T09:29:27;19.43;;;3.30;;
15383;SDS011;7790;53.022;12.968;2023-01-19T09:33:28;8.23;;;2.97;;
15383;SDS011;7790;53.022;12.968;2023-01-19T09:37:31;3.70;;;2.67;;
15383;SDS011;7790;53.022;12.968;2023-01-19T09:41:32;4.47;;;2.20;;
15383;SDS011;7790;53.022;12.968;2023-01-19T09:45:38;3.70;;;2.30;;
15383;SDS011;7790;53.022;12.968;2023-01-19T09:49:44;3.00;;;2.13;;
15383;SDS011;7790;53.022;12.968;2023-01-19T09:53:55;3.77;;;2.17;;
15383;SDS011;7790;53.022;12.968;2023-01-19T09:57:57;3.40;;;2.20;;
15383;SDS011;7790;53.022;12.968;2023-01-19T10:06:01;2.37;;;1.90;;
15383;SDS011;7790;53.022;12.968;2023-01-19T10:14:08;4.13;;;1.90;;
15383;SDS011;7790;53.022;12.968;2023-01-19T10:22:18;8.43;;;2.40;;
15383;SDS011;7790;53.022;12.968;2023-01-19T10:26:25;5.20;;;2.50;;
15383;SDS011;7790;53.022;12.968;2023-01-19T10:30:27;7.70;;;1.97;;
15383;SDS011;7790;53.022;12.968;2023-01-19T10:34:29;3.73;;;1.90;;
15383;SDS011;7790;53.022;12.968;2023-01-19T10:38:31;1.80;;;1.60;;
15383;SDS011;7790;53.022;12.968;2023-01-19T10:42:33;12.80;;;7.63;;
15383;SDS011;7790;53.022;12.968;2023-01-19T10:46:44;9.23;;;5.30;;
15383;SDS011;7790;53.022;12.968;2023-01-19T10:50:45;6.33;;;4.37;;
15383;SDS011;7790;53.022;12.968;2023-01-19T10:54:47;5.60;;;3.93;;
15383;SDS011;7790;53.022;12.968;2023-01-19T10:58:48;7.70;;;3.80;;
15383;SDS011;7790;53.022;12.968;2023-01-19T11:02:49;4.30;;;3.37;;
15383;SDS011;7790;53.022;12.968;2023-01-19T11:06:50;6.10;;;3.43;;
15383;SDS011;7790;53.022;12.968;2023-01-19T11:10:53;3.87;;;3.10;;
15383;SDS011;7790;53.022;12.968;2023-01-19T11:14:55;3.07;;;2.77;;
15383;SDS011;7790;53.022;12.968;2023-01-19T11:18:57;4.83;;;3.20;;
15383;SDS011;7790;53.022;12.968;2023-01-19T11:27:15;4.17;;;2.80;;
15383;SDS011;7790;53.022;12.968;2023-01-19T11:31:17;3.50;;;2.57;;
15383;SDS011;7790;53.022;12.968;2023-01-19T11:35:29;3.30;;;2.50;;
15383;SDS011;7790;53.022;12.968;2023-01-19T11:39:43;3.37;;;2.43;;
15383;SDS011;7790;53.022;12.968;2023-01-19T11:43:46;2.70;;;2.00;;
15383;SDS011;7790;53.022;12.968;2023-01-19T11:47:48;2.47;;;2.23;;
15383;SDS011;7790;53.022;12.968;2023-01-19T11:51:59;5.40;;;2.40;;
15383;SDS011;7790;53.022;12.968;2023-01-19T11:56:13;2.10;;;1.87;;
15383;SDS011;7790;53.022;12.968;2023-01-19T12:04:29;2.33;;;1.70;;
15383;SDS011;7790;53.022;12.968;2023-01-19T12:08:33;2.33;;;2.13;;
15383;SDS011;7790;53.022;12.968;2023-01-19T12:12:35;2.13;;;1.93;;
15383;SDS011;7790;53.022;12.968;2023-01-19T12:16:39;2.30;;;2.10;;
15383;SDS011;7790;53.022;12.968;2023-01-19T12:20:49;3.50;;;2.07;;
15383;SDS011;7790;53.022;12.968;2023-01-19T12:24:56;1.83;;;1.60;;
15383;SDS011;7790;53.022;12.968;2023-01-19T12:29:09;1.87;;;1.73;;
15383;SDS011;7790;53.022;12.968;2023-01-19T12:33:21;2.07;;;1.80;;
15383;SDS011;7790;53.022;12.968;2023-01-19T12:41:31;1.80;;;1.70;;
15383;SDS011;7790;53.022;12.968;2023-01-19T12:45:36;1.80;;;1.70;;
15383;SDS011;7790;53.022;12.968;2023-01-19T12:49:43;1.80;;;1.40;;
15383;SDS011;7790;53.022;12.968;2023-01-19T12:53:49;1.83;;;1.40;;
15383;SDS011;7790;53.022;12.968;2023-01-19T12:57:55;3.17;;;1.60;;
15383;SDS011;7790;53.022;12.968;2023-01-19T13:06:17;1.63;;;1.53;;
15383;SDS011;7790;53.022;12.968;2023-01-19T13:14:38;2.57;;;1.40;;
15383;SDS011;7790;53.022;12.968;2023-01-19T13:18:40;1.50;;;1.40;;
15383;SDS011;7790;53.022;12.968;2023-01-19T13:30:52;4.77;;;1.83;;
15383;SDS011;7790;53.022;12.968;2023-01-19T13:34:55;1.60;;;1.47;;
15383;SDS011;7790;53.022;12.968;2023-01-19T13:39:00;1.47;;;1.27;;
15383;SDS011;7790;53.022;12.968;2023-01-19T13:43:02;1.73;;;1.50;;
15383;SDS011;7790;53.022;12.968;2023-01-19T13:47:03;2.17;;;1.47;;
15383;SDS011;7790;53.022;12.968;2023-01-19T13:51:14;1.47;;;1.30;;
15383;SDS011;7790;53.022;12.968;2023-01-19T13:55:17;1.50;;;1.40;;
15383;SDS011;7790;53.022;12.968;2023-01-19T13:59:19;3.03;;;1.30;;
15383;SDS011;7790;53.022;12.968;2023-01-19T14:03:21;1.77;;;1.50;;
15383;SDS011;7790;53.022;12.968;2023-01-19T14:07:23;3.70;;;1.50;;
15383;SDS011;7790;53.022;12.968;2023-01-19T14:11:27;5.30;;;1.40;;
15383;SDS011;7790;53.022;12.968;2023-01-19T14:15:30;3.13;;;1.50;;
15383;SDS011;7790;53.022;12.968;2023-01-19T14:19:51;1.43;;;1.20;;
15383;SDS011;7790;53.022;12.968;2023-01-19T14:23:53;1.37;;;1.27;;
15383;SDS011;7790;53.022;12.968;2023-01-19T14:32:25;1.63;;;1.10;;
15383;SDS011;7790;53.022;12.968;2023-01-19T14:36:33;1.87;;;1.17;;
15383;SDS011;7790;53.022;12.968;2023-01-19T14:40:41;4.20;;;1.37;;
15383;SDS011;7790;53.022;12.968;2023-01-19T14:44:43;2.80;;;1.47;;
15383;SDS011;7790;53.022;12.968;2023-01-19T14:48:47;1.90;;;1.00;;
15383;SDS011;7790;53.022;12.968;2023-01-19T14:52:50;2.87;;;1.20;;
15383;SDS011;7790;53.022;12.968;2023-01-19T14:56:53;3.90;;;1.27;;
15383;SDS011;7790;53.022;12.968;2023-01-19T15:00:54;1.43;;;1.30;;
15383;SDS011;7790;53.022;12.968;2023-01-19T15:04:55;3.00;;;1.33;;
15383;SDS011;7790;53.022;12.968;2023-01-19T15:08:57;2.20;;;1.20;;
15383;SDS011;7790;53.022;12.968;2023-01-19T15:12:58;2.80;;;1.33;;
15383;SDS011;7790;53.022;12.968;2023-01-19T15:16:59;14.10;;;1.80;;
15383;SDS011;7790;53.022;12.968;2023-01-19T15:21:01;2.40;;;1.57;;
15383;SDS011;7790;53.022;12.968;2023-01-19T15:25:02;3.77;;;1.33;;
15383;SDS011;7790;53.022;12.968;2023-01-19T15:33:21;10.60;;;1.70;;
15383;SDS011;7790;53.022;12.968;2023-01-19T15:37:23;5.97;;;1.80;;
15383;SDS011;7790;53.022;12.968;2023-01-19T15:41:25;10.87;;;1.67;;
15383;SDS011;7790;53.022;12.968;2023-01-19T15:49:31;5.50;;;1.80;;
15383;SDS011;7790;53.022;12.968;2023-01-19T15:53:32;6.53;;;1.60;;
15383;SDS011;7790;53.022;12.968;2023-01-19T15:57:34;8.43;;;1.77;;
15383;SDS011;7790;53.022;12.968;2023-01-19T16:01:35;5.93;;;1.43;;
15383;SDS011;7790;53.022;12.968;2023-01-19T16:05:36;4.47;;;1.50;;
15383;SDS011;7790;53.022;12.968;2023-01-19T16:09:38;3.83;;;1.90;;
15383;SDS011;7790;53.022;12.968;2023-01-19T16:13:42;11.43;;;1.90;;
15383;SDS011;7790;53.022;12.968;2023-01-19T16:17:44;8.77;;;1.83;;
15383;SDS011;7790;53.022;12.968;2023-01-19T16:21:45;8.23;;;1.60;;
15383;SDS011;7790;53.022;12.968;2023-01-19T16:25:57;5.33;;;1.60;;
15383;SDS011;7790;53.022;12.968;2023-01-19T16:29:58;5.30;;;1.60;;
15383;SDS011;7790;53.022;12.968;2023-01-19T16:34:04;6.57;;;1.90;;
15383;SDS011;7790;53.022;12.968;2023-01-19T16:38:05;15.87;;;2.23;;
15383;SDS011;7790;53.022;12.968;2023-01-19T16:42:08;13.70;;;1.97;;
15383;SDS011;7790;53.022;12.968;2023-01-19T16:46:16;5.33;;;1.77;;
15383;SDS011;7790;53.022;12.968;2023-01-19T16:50:18;4.83;;;1.60;;
15383;SDS011;7790;53.022;12.968;2023-01-19T16:54:20;3.53;;;1.80;;
15383;SDS011;7790;53.022;12.968;2023-01-19T16:58:22;6.80;;;1.67;;
15383;SDS011;7790;53.022;12.968;2023-01-19T17:02:23;8.27;;;1.93;;
15383;SDS011;7790;53.022;12.968;2023-01-19T17:06:25;4.50;;;1.57;;
15383;SDS011;7790;53.022;12.968;2023-01-19T17:10:27;6.77;;;1.70;;
15383;SDS011;7790;53.022;12.968;2023-01-19T17:14:28;8.53;;;1.73;;
15383;SDS011;7790;53.022;12.968;2023-01-19T17:18:30;2.57;;;1.37;;
15383;SDS011;7790;53.022;12.968;2023-01-19T17:22:32;3.63;;;1.40;;
15383;SDS011;7790;53.022;12.968;2023-01-19T17:26:33;2.57;;;1.30;;
15383;SDS011;7790;53.022;12.968;2023-01-19T17:30:34;4.00;;;1.50;;
15383;SDS011;7790;53.022;12.968;2023-01-19T17:34:36;2.90;;;1.30;;
15383;SDS011;7790;53.022;12.968;2023-01-19T17:38:37;2.57;;;1.13;;
15383;SDS011;7790;53.022;12.968;2023-01-19T17:42:39;6.13;;;1.37;;
15383;SDS011;7790;53.022;12.968;2023-01-19T17:46:41;2.47;;;1.40;;
15383;SDS011;7790;53.022;12.968;2023-01-19T17:50:42;6.47;;;1.40;;
15383;SDS011;7790;53.022;12.968;2023-01-19T17:54:44;2.43;;;1.10;;
15383;SDS011;7790;53.022;12.968;2023-01-19T17:58:45;2.67;;;1.40;;
15383;SDS011;7790;53.022;12.968;2023-01-19T18:02:49;3.57;;;2.00;;
15383;SDS011;7790;53.022;12.968;2023-01-19T18:06:51;4.67;;;2.47;;
15383;SDS011;7790;53.022;12.968;2023-01-19T18:10:56;4.37;;;1.93;;
15383;SDS011;7790;53.022;12.968;2023-01-19T18:14:57;3.73;;;2.10;;
15383;SDS011;7790;53.022;12.968;2023-01-19T18:18:59;8.73;;;2.50;;
15383;SDS011;7790;53.022;12.968;2023-01-19T18:23:00;6.40;;;2.23;;
15383;SDS011;7790;53.022;12.968;2023-01-19T18:27:01;7.10;;;2.30;;
15383;SDS011;7790;53.022;12.968;2023-01-19T18:31:09;6.67;;;2.10;;
15383;SDS011;7790;53.022;12.968;2023-01-19T18:35:11;3.50;;;1.60;;
15383;SDS011;7790;53.022;12.968;2023-01-19T18:39:12;3.70;;;1.80;;
15383;SDS011;7790;53.022;12.968;2023-01-19T18:43:13;3.07;;;1.77;;
15383;SDS011;7790;53.022;12.968;2023-01-19T18:47:15;3.73;;;2.10;;
15383;SDS011;7790;53.022;12.968;2023-01-19T18:51:16;3.73;;;2.00;;
15383;SDS011;7790;53.022;12.968;2023-01-19T18:55:17;1.97;;;1.60;;
15383;SDS011;7790;53.022;12.968;2023-01-19T18:59:18;6.47;;;1.90;;
15383;SDS011;7790;53.022;12.968;2023-01-19T19:03:20;2.50;;;1.60;;
15383;SDS011;7790;53.022;12.968;2023-01-19T19:07:21;2.57;;;1.80;;
15383;SDS011;7790;53.022;12.968;2023-01-19T19:11:23;2.70;;;1.87;;
15383;SDS011;7790;53.022;12.968;2023-01-19T19:15:25;2.40;;;2.00;;
15383;SDS011;7790;53.022;12.968;2023-01-19T19:19:26;2.60;;;2.10;;
15383;SDS011;7790;53.022;12.968;2023-01-19T19:23:27;2.57;;;1.93;;
15383;SDS011;7790;53.022;12.968;2023-01-19T19:27:28;2.63;;;1.93;;
15383;SDS011;7790;53.022;12.968;2023-01-19T19:31:30;2.83;;;2.00;;
15383;SDS011;7790;53.022;12.968;2023-01-19T19:35:31;4.20;;;2.50;;
15383;SDS011;7790;53.022;12.968;2023-01-19T19:39:32;3.43;;;2.00;;
15383;SDS011;7790;53.022;12.968;2023-01-19T19:43:34;2.20;;;1.93;;
15383;SDS011;7790;53.022;12.968;2023-01-19T19:47:37;2.40;;;2.20;;
15383;SDS011;7790;53.022;12.968;2023-01-19T19:51:38;2.60;;;2.20;;
15383;SDS011;7790;53.022;12.968;2023-01-19T19:55:40;2.57;;;2.30;;
15383;SDS011;7790;53.022;12.968;2023-01-19T19:59:41;1.90;;;1.80;;
15383;SDS011;7790;53.022;12.968;2023-01-19T20:03:42;2.57;;;2.00;;
15383;SDS011;7790;53.022;12.968;2023-01-19T20:07:43;5.67;;;2.10;;
15383;SDS011;7790;53.022;12.968;2023-01-19T20:11:48;3.30;;;1.73;;
15383;SDS011;7790;53.022;12.968;2023-01-19T20:15:49;3.60;;;2.00;;
15383;SDS011;7790;53.022;12.968;2023-01-19T20:19:52;3.10;;;2.20;;
15383;SDS011;7790;53.022;12.968;2023-01-19T20:23:54;2.20;;;2.00;;
15383;SDS011;7790;53.022;12.968;2023-01-19T20:27:56;2.60;;;1.93;;
15383;SDS011;7790;53.022;12.968;2023-01-19T20:31:58;1.90;;;1.80;;
15383;SDS011;7790;53.022;12.968;2023-01-19T20:35:59;2.83;;;2.20;;
15383;SDS011;7790;53.022;12.968;2023-01-19T20:40:01;2.93;;;1.93;;
15383;SDS011;7790;53.022;12.968;2023-01-19T20:44:02;3.33;;;2.20;;
15383;SDS011;7790;53.022;12.968;2023-01-19T20:48:03;4.00;;;1.97;;
15383;SDS011;7790;53.022;12.968;2023-01-19T20:52:05;3.00;;;2.30;;
15383;SDS011;7790;53.022;12.968;2023-01-19T20:56:07;3.53;;;2.10;;
15383;SDS011;7790;53.022;12.968;2023-01-19T21:00:10;4.67;;;2.30;;
15383;SDS011;7790;53.022;12.968;2023-01-19T21:04:11;2.43;;;2.07;;
15383;SDS011;7790;53.022;12.968;2023-01-19T21:08:13;2.87;;;2.10;;
15383;SDS011;7790;53.022;12.968;2023-01-19T21:12:15;2.23;;;2.03;;
15383;SDS011;7790;53.022;12.968;2023-01-19T21:16:16;2.40;;;2.20;;
15383;SDS011;7790;53.022;12.968;2023-01-19T21:20:17;4.63;;;2.40;;
15383;SDS011;7790;53.022;12.968;2023-01-19T21:24:19;2.87;;;2.20;;
15383;SDS011;7790;53.022;12.968;2023-01-19T21:28:20;2.87;;;2.30;;
15383;SDS011;7790;53.022;12.968;2023-01-19T21:32:25;2.60;;;2.40;;
15383;SDS011;7790;53.022;12.968;2023-01-19T21:36:26;2.50;;;2.27;;
15383;SDS011;7790;53.022;12.968;2023-01-19T21:40:27;3.20;;;2.03;;
15383;SDS011;7790;53.022;12.968;2023-01-19T21:44:29;2.40;;;2.20;;
15383;SDS011;7790;53.022;12.968;2023-01-19T21:48:30;2.50;;;2.30;;
15383;SDS011;7790;53.022;12.968;2023-01-19T21:52:31;3.00;;;2.10;;
15383;SDS011;7790;53.022;12.968;2023-01-19T21:56:35;2.00;;;1.90;;
15383;SDS011;7790;53.022;12.968;2023-01-19T22:00:37;2.50;;;2.10;;
15383;SDS011;7790;53.022;12.968;2023-01-19T22:04:38;1.90;;;1.80;;
15383;SDS011;7790;53.022;12.968;2023-01-19T22:08:40;2.33;;;2.13;;
15383;SDS011;7790;53.022;12.968;2023-01-19T22:12:43;2.17;;;2.00;;
15383;SDS011;7790;53.022;12.968;2023-01-19T22:16:45;1.67;;;1.57;;
15383;SDS011;7790;53.022;12.968;2023-01-19T22:20:46;1.90;;;1.70;;
15383;SDS011;7790;53.022;12.968;2023-01-19T22:24:50;2.67;;;1.90;;
15383;SDS011;7790;53.022;12.968;2023-01-19T22:28:55;1.70;;;1.60;;
15383;SDS011;7790;53.022;12.968;2023-01-19T22:32:57;2.90;;;1.97;;
15383;SDS011;7790;53.022;12.968;2023-01-19T22:36:58;3.13;;;1.73;;
15383;SDS011;7790;53.022;12.968;2023-01-19T22:40:59;2.00;;;1.80;;
15383;SDS011;7790;53.022;12.968;2023-01-19T22:45:01;1.70;;;1.60;;
15383;SDS011;7790;53.022;12.968;2023-01-19T22:49:03;1.97;;;1.77;;
15383;SDS011;7790;53.022;12.968;2023-01-19T22:53:06;1.60;;;1.50;;
15383;SDS011;7790;53.022;12.968;2023-01-19T22:57:07;3.80;;;1.80;;
15383;SDS011;7790;53.022;12.968;2023-01-19T23:01:12;1.87;;;1.60;;
15383;SDS011;7790;53.022;12.968;2023-01-19T23:05:13;2.07;;;1.87;;
15383;SDS011;7790;53.022;12.968;2023-01-19T23:09:15;2.30;;;1.80;;
15383;SDS011;7790;53.022;12.968;2023-01-19T23:13:16;2.30;;;1.70;;
15383;SDS011;7790;53.022;12.968;2023-01-19T23:17:17;2.70;;;1.50;;
15383;SDS011;7790;53.022;12.968;2023-01-19T23:21:19;2.03;;;1.83;;
15383;SDS011;7790;53.022;12.968;2023-01-19T23:25:21;1.60;;;1.50;;
15383;SDS011;7790;53.022;12.968;2023-01-19T23:29:23;1.70;;;1.60;;
15383;SDS011;7790;53.022;12.968;2023-01-19T23:33:24;3.23;;;1.50;;
15383;SDS011;7790;53.022;12.968;2023-01-19T23:37:25;1.77;;;1.50;;
15383;SDS011;7790;53.022;12.968;2023-01-19T23:41:28;1.53;;;1.43;;
15383;SDS011;7790;53.022;12.968;2023-01-19T23:45:29;1.53;;;1.43;;
15383;SDS011;7790;53.022;12.968;2023-01-19T23:49:31;1.97;;;1.63;;
15383;SDS011;7790;53.022;12.968;2023-01-19T23:53:32;1.50;;;1.40;;
15383;SDS011;7790;53.022;12.968;2023-01-19T23:57:34;2.03;;;1.50;;
